Ursvikens väder

stationens status  
Klimatstatistik

Klimatstatistik


Report for 2010 Mar
                   Monthly Climatological Summary for mar 2010

Name: Ursviken   City:    State: 
Elevation: 35 m  Lat: N 64° 42' 41"   Lon: E 021° 10' 44"

                  Temperature (°C), Rain (mm), Wind Speed (m/s)

                                      Heat  Cool        Avg
    Mean                              Deg   Deg         Wind                 Dom
Day Temp  High   Time   Low    Time   Days  Days  Rain  Speed High   Time    Dir
----------------------------------------------------------------------------------
 1  -8,3  -6,8   00:00  -9,8   00:00  26,6   0,0   0,0   0,7   4,8   00:00   ---
 2  -5,8  -3,8   00:00  -7,8   00:00  24,1   0,0   0,0   2,2  11,2   00:00   ---
 3  -4,9  -3,2   00:00  -6,6   00:00   5,1   0,0   0,0   2,6   8,5   00:00   OSO
 4  -5,7  -0,9   00:00 -10,5   00:00  24,0   0,0   0,0   1,5   8,8   00:00   ---
 5  -5,3   3,0   00:00 -13,6   00:00  23,6   0,0   0,0   0,2   3,4   00:00   ---
 6  -6,8  -0,8   00:00 -12,7   00:00  15,2   0,0   0,0   0,3   3,1   00:00     S
 7  -4,3   2,2   00:00 -10,8   00:00  22,6   0,0   1,8   0,3   3,4   00:00   ---
 8   2,0   8,0   00:00  -4,0   00:00  16,3   0,0  13,8   2,4  11,6   00:00   ---
 9  -1,7   2,1   00:00  -5,5   00:00  16,6   0,0   0,0   1,0   7,8   00:00     V
10  -0,6   1,0   00:00  -2,3   00:00  18,9   0,0   1,2   0,1   2,4   00:00   ---
11  -3,0   2,3   00:00  -8,2   00:00  21,3   0,0   5,4   0,5   3,7   00:00   ---
12  -5,4   2,0   00:00 -12,9   00:00  23,8   0,0   0,6   0,6   5,1   00:00   ---
13  -5,3   1,8   00:00 -12,4   00:00  23,6   0,0   0,0   0,8   5,1   00:00   ---
14  -9,3  -1,0   00:00 -17,6   00:00  27,6   0,0   0,0   0,6   4,8   00:00   ---
15 -12,1  -3,5   00:00 -20,8   00:00  30,4   0,0   0,0   0,3   3,1   00:00   ---
16  -9,0  -1,4   00:00 -16,6   00:00  27,3   0,0   0,0   0,3   2,7   00:00   ---
17  -8,1   3,3   00:00 -19,6   00:00  26,4   0,0   0,0   0,2   3,1   00:00   ---
18 -10,6  -2,6   00:00 -18,6   00:00  28,9   0,0   0,0   0,8   6,5   00:00   ---
19  -4,3  -2,3   00:00  -6,3   00:00  22,6   0,0   0,0   0,9   4,8   00:00   ---
20  -3,9  -0,1   00:00  -7,7   00:00  22,2   0,0   0,0   0,9   4,4   00:00   ---
21  -5,2   4,9   00:00 -15,3   00:00  23,5   0,0   3,0   0,3   3,1   00:00   ---
22  -2,5   4,2   00:00  -9,2   00:00  20,8  34,9   1,8   1,4   8,2   00:00   ---
23  -2,7   7,3   00:00 -12,7   00:00  21,0   0,0   0,0   0,5   2,7   00:00   ---
24  -5,2   5,4   00:00 -15,7   00:00  23,4   0,0   0,0   0,2   2,0   00:00   ---
25  -8,1   2,3   00:00 -18,6   00:00  26,4   0,0   0,0   0,7   7,1   00:00   ---
26  -0,3   2,4   00:00  -3,1   00:00  18,6   0,0   1,2   0,1   2,4   00:00   ---
27  -3,5  -3,0   00:00  -3,9   00:00  21,8   0,0   0,6   0,0   0,0   00:00   ---
28  -3,2  -2,4   00:00  -4,0   00:00  21,5   0,0   0,6   0,6   4,4   00:00   ---
29  -2,3  -0,2   00:00  -4,4   00:00  20,6   0,0   0,0   0,5   3,4   00:00   ---
30  -0,5   5,9   00:00  -6,9   00:00  18,8   0,0   6,6   0,3   4,1   00:00   ---
31  -0,7   5,0   00:00  -6,4   00:00  19,0   0,0   0,0   0,6   3,4   00:00   ---
----------------------------------------------------------------------------------
    -4,7   8,0     8   -20,8    15   682,7  34,9  36,6   0,7  11,6     8       N

Max >=  20,0:  0
Max <=   0,0: 14
Min <=   0,0: 31
Min <= -20,0:  1
Max Rain: 13,8 on day 8
Days of Rain: 11 (>= 0,2 mm)  4 (>= 2,0 mm)  0 (>= 20,0 mm)
Heat Base: 18,3  Cool Base: 18,3  Method: Integration
 
: nu: mätare: diagram: idag och igår: månad och år: rekord: månadsrekord: statistik:
Startsidan Ursviken Örviken

Välkommen till Lundströms väder
Väderstationen som används är en WH1080, Uppdaterad 2024-06-13 15:05:01
skapad av Cumulus v1.9.4 (10992)
Forum
sedan 22 dec 2012